KRID/RID METAR and TAF weather

Enter ICAO airport designator
Station Type Date Time Source
KRID METAR 2021/03/08 15:35 UTC NOAA

KRID 081535Z AUTO 22009KT 10SM CLR 08/00 A3045 RMK AO2


Station Type Date Time Source
KRID Decoded METAR 2021/03/08 15:35 UTC NOAA

Station name not available
Mar 08, 2021 - 10:35 AM EST / 2021.03.08 1535 UTC
Wind: from the SW (220 degrees) at 10 MPH (9 KT):0
Visibility: 10 mile(s):0
Sky conditions: clear
Temperature: 46 F (8 C)
Dew Point: 32 F (0 C)
Relative Humidity: 56%
Pressure (altimeter): 30.45 in. Hg (1031 hPa)
ob: KRID 081535Z AUTO 22009KT 10SM CLR 08/00 A3045 RMK AO2
cycle: 15

Station Type Date Time Source
KRID TAF UTC NOAA

Error!

Example: see airport list